Time;durP1;ratioP1;P1;durP2;ratioP2;P2;SDS_P1;SDS_P2;PMS_P1;PMS_P2;Temp;Humidity;BMP_temperature;BMP_pressure;BME280_temperature;BME280_humidity;BME280_pressure;Samples;Min_cycle;Max_cycle;Signal;HPM_P1;HPM_P2
2022/07/31 00:01:53;;;;;;;2.20;1.70;;;16.80;99.90;;;;;;5071337;28;20569;-47
2022/07/31 00:04:22;;;;;;;2.90;1.80;;;16.60;99.90;;;;;;5071025;28;20479;-48
2022/07/31 00:06:49;;;;;;;2.90;2.20;;;16.60;99.90;;;;;;5071119;28;20469;-48
2022/07/31 00:09:16;;;;;;;3.00;2.17;;;16.70;99.90;;;;;;5070971;28;20530;-51
2022/07/31 00:11:44;;;;;;;2.40;2.00;;;16.70;99.90;;;;;;5071192;28;20448;-47
2022/07/31 00:14:11;;;;;;;5.00;2.07;;;16.60;99.90;;;;;;5071074;28;20503;-47
2022/07/31 00:16:39;;;;;;;3.07;2.03;;;16.50;99.90;;;;;;5070875;28;20964;-48
2022/07/31 00:19:06;;;;;;;3.70;2.10;;;16.60;99.90;;;;;;5070757;28;21018;-47
2022/07/31 00:21:33;;;;;;;2.83;2.07;;;16.70;99.90;;;;;;5070365;28;20428;-50
2022/07/31 00:24:00;;;;;;;1.87;1.67;;;16.70;99.90;;;;;;5070706;28;20429;-47
2022/07/31 00:26:27;;;;;;;3.90;2.13;;;16.80;99.90;;;;;;5071100;28;20503;-49
2022/07/31 00:28:54;;;;;;;2.50;2.17;;;16.80;99.90;;;;;;5070373;28;20440;-48
2022/07/31 00:31:21;;;;;;;2.23;2.00;;;16.90;99.90;;;;;;5070768;28;20457;-47
2022/07/31 00:33:49;;;;;;;3.67;2.10;;;16.90;99.90;;;;;;5070655;28;20445;-49
2022/07/31 00:36:16;;;;;;;2.53;1.70;;;16.90;99.90;;;;;;5070435;28;21038;-47
2022/07/31 00:38:43;;;;;;;2.87;2.50;;;16.90;99.90;;;;;;5070232;28;20437;-46
2022/07/31 00:41:10;;;;;;;2.97;2.10;;;16.80;99.90;;;;;;5070526;28;20452;-50
2022/07/31 00:43:37;;;;;;;2.37;1.60;;;16.80;99.90;;;;;;5070515;28;21163;-47
2022/07/31 00:46:05;;;;;;;3.80;2.30;;;16.70;99.90;;;;;;5070123;28;20799;-47
2022/07/31 00:48:32;;;;;;;5.00;1.80;;;16.60;99.90;;;;;;5070237;28;20436;-47
2022/07/31 00:51:01;;;;;;;3.43;2.30;;;16.70;99.90;;;;;;5070205;28;20672;-47
2022/07/31 00:53:28;;;;;;;2.27;1.93;;;16.80;99.90;;;;;;5070253;28;20444;-47
2022/07/31 00:55:56;;;;;;;2.83;1.53;;;16.80;99.90;;;;;;5070313;28;20460;-48
2022/07/31 00:58:23;;;;;;;2.30;2.10;;;16.80;99.90;;;;;;5070182;28;20424;-47
2022/07/31 01:00:50;;;;;;;2.43;2.13;;;16.90;99.90;;;;;;5070071;28;20456;-47
2022/07/31 01:03:17;;;;;;;3.33;1.90;;;16.90;99.90;;;;;;5070235;28;20480;-48
2022/07/31 01:05:44;;;;;;;2.47;1.87;;;16.90;99.90;;;;;;5069798;28;20559;-48
2022/07/31 01:08:13;;;;;;;4.77;1.93;;;16.90;99.90;;;;;;5070136;28;20506;-47
2022/07/31 01:10:50;;;;;;;2.10;1.90;;;16.90;99.90;;;;;;5069904;28;20452;-47
2022/07/31 01:13:26;;;;;;;5.93;2.10;;;16.90;99.90;;;;;;5069993;28;20438;-47
2022/07/31 01:15:55;;;;;;;3.13;2.00;;;16.90;99.90;;;;;;5070029;28;21029;-47
2022/07/31 01:18:24;;;;;;;4.03;1.87;;;16.80;99.90;;;;;;5069736;28;20436;-48
2022/07/31 01:20:55;;;;;;;2.67;2.47;;;16.80;99.90;;;;;;5068832;28;21024;-47
2022/07/31 01:23:41;;;;;;;2.20;1.67;;;16.80;99.90;;;;;;5070362;28;20475;-47
2022/07/31 01:26:19;;;;;;;2.87;1.60;;;16.90;99.90;;;;;;5069612;28;20514;-47
2022/07/31 01:29:00;;;;;;;2.50;2.03;;;16.90;99.90;;;;;;5069782;28;20464;-44
2022/07/31 01:31:33;;;;;;;1.90;1.47;;;16.90;99.90;;;;;;5070012;28;20452;-47
2022/07/31 01:34:07;;;;;;;2.30;1.80;;;16.80;99.90;;;;;;5069904;28;20437;-48
2022/07/31 01:36:36;;;;;;;2.20;2.00;;;16.50;99.90;;;;;;5069741;28;20885;-48
2022/07/31 01:39:04;;;;;;;2.30;2.07;;;16.50;99.90;;;;;;5069610;28;20449;-47
2022/07/31 01:41:42;;;;;;;4.43;1.90;;;16.60;99.90;;;;;;5069791;28;20448;-47
2022/07/31 01:44:13;;;;;;;3.43;2.40;;;16.60;99.90;;;;;;5069560;28;20433;-47
2022/07/31 01:46:41;;;;;;;2.90;2.00;;;16.60;99.90;;;;;;5069658;28;20545;-48
2022/07/31 01:49:09;;;;;;;2.70;1.80;;;16.60;99.90;;;;;;5069535;28;20444;-46
2022/07/31 01:51:39;;;;;;;2.13;1.80;;;16.60;99.90;;;;;;5069857;28;20425;-48
2022/07/31 01:54:07;;;;;;;3.23;2.80;;;16.60;99.90;;;;;;5069659;28;20440;-48
2022/07/31 01:56:34;;;;;;;2.33;1.93;;;16.70;99.90;;;;;;5069617;28;20483;-47
2022/07/31 01:59:03;;;;;;;2.00;1.73;;;16.60;99.90;;;;;;5069452;28;20444;-48
2022/07/31 02:01:34;;;;;;;2.40;2.20;;;16.50;99.90;;;;;;5069591;28;20440;-49
2022/07/31 02:04:02;;;;;;;3.23;2.27;;;16.50;99.90;;;;;;5069660;28;20498;-47
2022/07/31 02:06:30;;;;;;;2.57;2.17;;;16.50;99.90;;;;;;5069385;28;20482;-47
2022/07/31 02:08:59;;;;;;;2.50;2.10;;;16.60;99.90;;;;;;5069700;28;20444;-48
2022/07/31 02:11:26;;;;;;;4.00;2.17;;;16.60;99.90;;;;;;5069530;28;20452;-49
2022/07/31 02:13:54;;;;;;;3.10;2.27;;;16.60;99.90;;;;;;5069574;28;20448;-47
2022/07/31 02:16:22;;;;;;;4.90;2.10;;;16.50;99.90;;;;;;5069819;28;20460;-47
2022/07/31 02:18:53;;;;;;;3.87;2.13;;;16.40;99.90;;;;;;5069216;28;20448;-48
2022/07/31 02:21:20;;;;;;;2.30;2.03;;;16.40;99.90;;;;;;5069074;28;20444;-47
2022/07/31 02:23:47;;;;;;;2.60;2.20;;;16.50;99.90;;;;;;5069361;28;20441;-50
2022/07/31 02:26:16;;;;;;;3.97;2.60;;;16.50;99.90;;;;;;5068971;28;20893;-47
2022/07/31 02:28:46;;;;;;;4.23;2.10;;;16.50;99.90;;;;;;5069387;28;20452;-48
2022/07/31 02:31:16;;;;;;;2.83;2.20;;;16.50;99.90;;;;;;5070424;28;20444;-50
2022/07/31 02:33:46;;;;;;;4.20;2.40;;;16.60;99.90;;;;;;5073043;28;20933;-49
2022/07/31 02:36:16;;;;;;;3.00;1.77;;;16.50;99.90;;;;;;5072968;28;20460;-48
2022/07/31 02:38:44;;;;;;;2.80;2.00;;;16.40;99.90;;;;;;5072531;28;20494;-47
2022/07/31 02:41:12;;;;;;;3.57;2.50;;;16.40;99.90;;;;;;5072962;28;20441;-47
2022/07/31 02:43:40;;;;;;;3.87;3.07;;;16.40;99.90;;;;;;5072765;28;20513;-47
2022/07/31 02:46:08;;;;;;;2.80;2.50;;;16.40;99.90;;;;;;5072397;28;20549;-46
2022/07/31 02:48:37;;;;;;;4.53;4.00;;;16.40;99.90;;;;;;5072669;28;21059;-47
2022/07/31 02:51:04;;;;;;;2.53;2.10;;;16.50;99.90;;;;;;5072528;28;20476;-49
2022/07/31 02:53:34;;;;;;;2.50;2.30;;;16.50;99.90;;;;;;5073057;28;20452;-48
2022/07/31 02:56:03;;;;;;;2.30;2.07;;;16.60;99.90;;;;;;5072613;28;20526;-50
2022/07/31 02:58:30;;;;;;;2.23;1.90;;;16.60;99.90;;;;;;5072561;28;20436;-47
2022/07/31 03:01:01;;;;;;;2.47;2.27;;;16.60;99.90;;;;;;5072536;28;20802;-50
2022/07/31 03:03:28;;;;;;;3.97;2.03;;;16.60;99.90;;;;;;5072550;28;20499;-47
2022/07/31 03:05:56;;;;;;;2.50;2.30;;;16.60;99.90;;;;;;5072119;28;20472;-50
2022/07/31 03:08:23;;;;;;;2.37;1.83;;;16.60;99.90;;;;;;5072419;28;20497;-47
2022/07/31 03:10:52;;;;;;;2.30;1.80;;;16.50;99.90;;;;;;5072089;28;20529;-48
2022/07/31 03:13:20;;;;;;;2.70;2.40;;;16.30;99.90;;;;;;5072358;28;20441;-47
2022/07/31 03:15:49;;;;;;;5.00;2.60;;;16.10;99.90;;;;;;5071900;28;20850;-48
2022/07/31 03:18:17;;;;;;;2.97;2.47;;;16.10;99.90;;;;;;5072206;28;20503;-50
2022/07/31 03:20:45;;;;;;;3.50;2.90;;;16.10;99.90;;;;;;5071509;28;20506;-49
2022/07/31 03:23:13;;;;;;;2.50;2.30;;;16.20;99.90;;;;;;5072033;28;20467;-46
2022/07/31 03:25:42;;;;;;;2.33;1.83;;;16.20;99.90;;;;;;5071809;28;20472;-49
2022/07/31 03:28:10;;;;;;;5.00;2.23;;;16.20;99.90;;;;;;5072061;28;20499;-51
2022/07/31 03:30:37;;;;;;;3.63;2.27;;;16.30;99.90;;;;;;5071680;28;20945;-47
2022/07/31 03:33:05;;;;;;;3.10;2.27;;;16.30;99.90;;;;;;5071801;28;20820;-47
2022/07/31 03:35:33;;;;;;;3.57;2.30;;;16.30;99.90;;;;;;5071666;28;20808;-47
2022/07/31 03:38:00;;;;;;;2.53;2.10;;;16.40;99.90;;;;;;5071829;28;20455;-48
2022/07/31 03:40:27;;;;;;;3.03;2.30;;;16.40;99.90;;;;;;5071507;28;20436;-49
2022/07/31 03:42:55;;;;;;;2.90;2.17;;;16.50;99.90;;;;;;5071544;28;20448;-48
2022/07/31 03:45:25;;;;;;;4.23;2.80;;;16.40;99.90;;;;;;5131966;22;20472;-50
2022/07/31 03:47:52;;;;;;;3.70;2.33;;;16.20;99.90;;;;;;5091926;28;20448;-48
2022/07/31 03:50:21;;;;;;;3.37;2.50;;;16.20;99.90;;;;;;5091301;28;20448;-48
2022/07/31 03:52:49;;;;;;;4.73;2.50;;;16.20;99.90;;;;;;5091679;28;20797;-48
2022/07/31 03:55:16;;;;;;;5.90;2.40;;;16.30;99.90;;;;;;5091649;28;20427;-48
2022/07/31 03:57:44;;;;;;;2.47;1.90;;;16.30;99.90;;;;;;5091640;28;20935;-49
2022/07/31 04:00:12;;;;;;;4.27;2.47;;;16.20;99.90;;;;;;5091384;28;20440;-50
2022/07/31 04:02:41;;;;;;;2.97;2.67;;;16.30;99.90;;;;;;5091797;28;20479;-48
2022/07/31 04:05:08;;;;;;;3.23;2.53;;;16.20;99.90;;;;;;5091516;28;20447;-47
2022/07/31 04:07:35;;;;;;;2.90;2.60;;;16.20;99.90;;;;;;5091941;28;20440;-48
2022/07/31 04:10:03;;;;;;;3.50;2.10;;;16.10;99.90;;;;;;5091266;28;20447;-47
2022/07/31 04:12:30;;;;;;;2.33;1.90;;;16.20;99.90;;;;;;5091220;28;20431;-50
2022/07/31 04:14:56;;;;;;;3.40;2.53;;;16.30;99.90;;;;;;5091217;28;20477;-47
2022/07/31 04:17:23;;;;;;;2.27;2.07;;;16.40;99.90;;;;;;5091469;28;20467;-49
2022/07/31 04:19:52;;;;;;;2.83;2.37;;;16.40;99.90;;;;;;5090925;28;20931;-48
2022/07/31 04:22:19;;;;;;;2.67;2.40;;;16.40;99.90;;;;;;5090812;28;20447;-49
2022/07/31 04:24:46;;;;;;;2.97;2.40;;;16.50;99.90;;;;;;5091195;28;20497;-47
2022/07/31 04:27:15;;;;;;;3.00;2.37;;;16.60;99.90;;;;;;5090710;28;20480;-51
2022/07/31 04:29:43;;;;;;;2.37;2.00;;;16.60;99.90;;;;;;5090818;28;20497;-51
2022/07/31 04:32:10;;;;;;;2.97;2.67;;;16.60;99.90;;;;;;5091085;28;20864;-49
2022/07/31 04:34:37;;;;;;;5.87;2.40;;;16.60;99.90;;;;;;5090949;28;20512;-52
2022/07/31 04:37:06;;;;;;;3.77;2.60;;;16.60;99.90;;;;;;5090770;28;20463;-49
2022/07/31 04:39:33;;;;;;;2.70;2.20;;;16.60;99.90;;;;;;5090667;28;20497;-50
2022/07/31 04:42:00;;;;;;;2.83;2.53;;;16.70;99.90;;;;;;5091089;28;20439;-49
2022/07/31 04:44:27;;;;;;;3.30;2.60;;;16.70;99.90;;;;;;5090777;28;20468;-50
2022/07/31 04:46:58;;;;;;;3.13;2.80;;;16.60;99.90;;;;;;5090321;28;20552;-48
2022/07/31 04:49:25;;;;;;;3.63;2.30;;;16.60;99.90;;;;;;5090489;28;20447;-47
2022/07/31 04:51:52;;;;;;;3.33;2.63;;;16.60;99.90;;;;;;5090730;28;20512;-47
2022/07/31 04:54:21;;;;;;;4.07;2.70;;;16.70;99.90;;;;;;5090020;28;20428;-48
2022/07/31 04:56:48;;;;;;;5.57;2.93;;;16.80;99.90;;;;;;5090324;28;21045;-48
2022/07/31 04:59:17;;;;;;;2.97;2.77;;;16.80;99.90;;;;;;5090328;28;20878;-47
2022/07/31 05:01:44;;;;;;;2.67;2.47;;;16.80;99.90;;;;;;5090455;28;20452;-48
2022/07/31 05:04:11;;;;;;;3.30;3.00;;;16.80;99.90;;;;;;5090778;28;20794;-47
2022/07/31 05:06:40;;;;;;;2.77;2.47;;;16.80;99.90;;;;;;5090131;28;20471;-47
2022/07/31 05:09:09;;;;;;;3.07;2.70;;;16.90;99.90;;;;;;5090222;28;20509;-51
2022/07/31 05:11:37;;;;;;;3.27;2.97;;;16.80;99.90;;;;;;5090374;28;20520;-48
2022/07/31 05:14:06;;;;;;;2.83;2.60;;;16.80;99.90;;;;;;5090726;28;20443;-48
2022/07/31 05:16:35;;;;;;;4.63;2.30;;;16.70;99.90;;;;;;5090260;28;20559;-50
2022/07/31 05:19:03;;;;;;;3.90;2.43;;;16.80;99.90;;;;;;5089922;28;20431;-48
2022/07/31 05:21:30;;;;;;;2.87;2.50;;;16.80;99.90;;;;;;5089891;28;20470;-50
2022/07/31 05:23:58;;;;;;;3.43;2.57;;;16.70;99.90;;;;;;5090012;28;20865;-50
2022/07/31 05:26:27;;;;;;;2.60;2.40;;;16.60;99.90;;;;;;5090357;28;20471;-47
2022/07/31 05:28:58;;;;;;;2.93;2.53;;;16.60;99.90;;;;;;5089927;28;20459;-47
2022/07/31 05:31:26;;;;;;;3.07;2.40;;;16.70;99.90;;;;;;5089938;28;20523;-49
2022/07/31 05:33:53;;;;;;;4.70;2.73;;;16.80;99.90;;;;;;5089984;28;20500;-48
2022/07/31 05:36:20;;;;;;;2.80;2.50;;;16.90;99.90;;;;;;5089893;28;20456;-48
2022/07/31 05:38:48;;;;;;;2.87;2.67;;;16.70;99.90;;;;;;5089691;28;20431;-48
2022/07/31 05:41:15;;;;;;;3.93;3.07;;;16.80;99.90;;;;;;5090135;28;20508;-49
2022/07/31 05:43:42;;;;;;;4.07;2.50;;;16.90;99.90;;;;;;5090019;28;20451;-48
2022/07/31 05:46:12;;;;;;;2.73;2.00;;;17.00;99.90;;;;;;5089680;28;21375;-48
2022/07/31 05:48:40;;;;;;;4.17;2.97;;;16.90;99.90;;;;;;5089820;28;20472;-57
2022/07/31 05:51:09;;;;;;;2.83;2.63;;;17.00;99.90;;;;;;5089779;28;20447;-48
2022/07/31 05:53:37;;;;;;;2.80;2.10;;;17.00;99.90;;;;;;5089705;28;20780;-49
2022/07/31 05:56:05;;;;;;;5.10;3.07;;;17.00;99.90;;;;;;5089654;28;20479;-51
2022/07/31 05:58:32;;;;;;;4.17;2.40;;;17.00;99.90;;;;;;5089796;28;20620;-51
2022/07/31 06:01:00;;;;;;;3.20;2.90;;;16.90;99.90;;;;;;5089673;28;20455;-49
2022/07/31 06:03:34;;;;;;;3.53;3.03;;;16.80;99.90;;;;;;5089873;28;20534;-48
2022/07/31 06:06:03;;;;;;;3.63;2.60;;;16.80;99.90;;;;;;5090313;28;20869;-48
2022/07/31 06:08:30;;;;;;;3.50;2.87;;;16.80;99.90;;;;;;5093764;28;21039;-47
2022/07/31 06:10:58;;;;;;;2.77;2.57;;;16.80;99.90;;;;;;5093610;28;20459;-49
2022/07/31 06:13:26;;;;;;;4.03;3.10;;;16.80;99.90;;;;;;5093716;28;20435;-47
2022/07/31 06:15:54;;;;;;;5.73;3.07;;;16.80;99.90;;;;;;5093618;28;20554;-48
2022/07/31 06:18:22;;;;;;;2.97;2.70;;;16.70;99.90;;;;;;5093321;28;20465;-49
2022/07/31 06:20:50;;;;;;;4.07;3.10;;;16.80;99.90;;;;;;5093038;28;20435;-47
2022/07/31 06:23:17;;;;;;;3.83;2.70;;;16.80;99.90;;;;;;5093536;28;20439;-48
2022/07/31 06:25:44;;;;;;;4.70;2.60;;;16.80;99.90;;;;;;5093356;28;20988;-48
2022/07/31 06:28:11;;;;;;;3.33;3.03;;;16.60;99.90;;;;;;5093334;28;20432;-48
2022/07/31 06:30:39;;;;;;;2.80;2.60;;;16.50;99.90;;;;;;5093133;28;20516;-49
2022/07/31 06:33:06;;;;;;;3.20;2.80;;;16.50;99.90;;;;;;5093423;28;20439;-48
2022/07/31 06:35:33;;;;;;;4.33;2.50;;;16.70;99.90;;;;;;5093538;28;20512;-50
2022/07/31 06:38:01;;;;;;;2.60;2.40;;;16.80;99.90;;;;;;5093102;28;20946;-48
2022/07/31 06:40:28;;;;;;;2.80;2.33;;;16.80;99.90;;;;;;5093003;28;20666;-48
2022/07/31 06:42:55;;;;;;;3.40;2.87;;;16.90;99.90;;;;;;5093024;28;20447;-49
2022/07/31 06:45:23;;;;;;;3.43;2.80;;;16.90;99.90;;;;;;5093117;28;20428;-48
2022/07/31 06:47:50;;;;;;;3.10;2.80;;;16.90;99.90;;;;;;5092960;28;20501;-52
2022/07/31 06:50:17;;;;;;;3.60;3.13;;;17.00;99.90;;;;;;5092916;28;20440;-48
2022/07/31 06:52:44;;;;;;;4.20;3.80;;;16.90;99.90;;;;;;5092783;28;20431;-49
2022/07/31 06:55:13;;;;;;;3.40;2.90;;;16.80;99.90;;;;;;5092846;28;20440;-54
2022/07/31 06:57:40;;;;;;;3.10;2.80;;;16.80;99.90;;;;;;5092746;28;20448;-50
2022/07/31 07:00:08;;;;;;;3.37;3.07;;;16.80;99.90;;;;;;5092526;28;20443;-48
2022/07/31 07:02:36;;;;;;;3.30;2.73;;;16.90;99.90;;;;;;5092797;28;20475;-49
2022/07/31 07:05:04;;;;;;;3.23;2.83;;;17.00;99.90;;;;;;5092699;28;20448;-49
2022/07/31 07:07:31;;;;;;;3.80;3.17;;;17.00;99.90;;;;;;5092490;28;20475;-49
2022/07/31 07:09:58;;;;;;;3.60;3.03;;;17.10;99.90;;;;;;5092253;28;20504;-47
2022/07/31 07:12:26;;;;;;;4.90;3.07;;;17.10;99.90;;;;;;5092602;28;20974;-50
2022/07/31 07:14:53;;;;;;;4.43;2.80;;;17.10;99.90;;;;;;5092519;28;20468;-50
2022/07/31 07:17:20;;;;;;;3.13;2.70;;;17.10;99.90;;;;;;5091679;28;20484;-47
2022/07/31 07:19:47;;;;;;;2.90;2.70;;;17.20;99.90;;;;;;5091935;28;20849;-53
2022/07/31 07:22:14;;;;;;;3.80;3.20;;;17.20;99.90;;;;;;5092042;28;20471;-48
2022/07/31 07:24:41;;;;;;;3.30;2.50;;;17.20;99.90;;;;;;5092346;28;20772;-49
2022/07/31 07:27:08;;;;;;;4.80;3.07;;;17.20;99.90;;;;;;5092110;28;20475;-48
2022/07/31 07:29:37;;;;;;;3.20;2.90;;;17.30;99.90;;;;;;5092022;28;20497;-53
2022/07/31 07:32:04;;;;;;;5.30;3.67;;;17.30;99.90;;;;;;5092157;28;20824;-51
2022/07/31 07:34:31;;;;;;;3.70;3.40;;;17.30;99.90;;;;;;5092053;28;20427;-48
2022/07/31 07:36:59;;;;;;;4.53;2.93;;;17.30;99.90;;;;;;5091925;28;20460;-49
2022/07/31 07:39:26;;;;;;;4.03;2.93;;;17.30;99.90;;;;;;5091941;28;20428;-48
2022/07/31 07:41:53;;;;;;;3.60;3.30;;;17.30;99.90;;;;;;5091813;28;20471;-48
2022/07/31 07:44:21;;;;;;;3.77;3.47;;;17.30;99.90;;;;;;5091894;28;20839;-53
2022/07/31 07:46:49;;;;;;;4.00;3.70;;;17.20;99.90;;;;;;5091617;28;20529;-49
2022/07/31 07:49:16;;;;;;;3.40;2.93;;;17.20;99.90;;;;;;5091503;28;20916;-47
2022/07/31 07:51:43;;;;;;;4.50;3.70;;;17.00;99.90;;;;;;5092120;28;20439;-50
2022/07/31 07:54:11;;;;;;;4.43;3.10;;;17.00;99.90;;;;;;5091791;28;20440;-48
2022/07/31 07:56:38;;;;;;;3.70;3.30;;;17.00;99.90;;;;;;5091625;28;20512;-48
2022/07/31 07:59:05;;;;;;;3.70;3.10;;;17.10;99.90;;;;;;5091411;28;20424;-48
2022/07/31 08:01:32;;;;;;;4.03;3.33;;;17.10;99.90;;;;;;5091536;28;20459;-50
2022/07/31 08:04:02;;;;;;;3.57;3.27;;;17.10;99.90;;;;;;5091575;28;20932;-48
2022/07/31 08:06:29;;;;;;;3.10;2.80;;;17.10;99.90;;;;;;5091554;28;20475;-48
2022/07/31 08:08:56;;;;;;;3.87;3.47;;;17.10;99.90;;;;;;5091186;28;20447;-51
2022/07/31 08:11:23;;;;;;;4.53;4.13;;;17.20;99.90;;;;;;5088328;28;20427;-49
2022/07/31 08:13:51;;;;;;;3.40;3.03;;;17.20;99.90;;;;;;5090812;28;20439;-48
2022/07/31 08:16:19;;;;;;;3.13;2.93;;;17.20;99.90;;;;;;5091207;28;20489;-48
2022/07/31 08:18:46;;;;;;;5.33;3.47;;;17.20;99.90;;;;;;5090899;28;20516;-53
2022/07/31 08:21:14;;;;;;;4.83;3.10;;;17.20;99.90;;;;;;5090635;28;20927;-50
2022/07/31 08:23:41;;;;;;;3.53;3.23;;;17.20;99.90;;;;;;5091035;28;20434;-55
2022/07/31 08:26:08;;;;;;;4.30;3.53;;;17.20;99.90;;;;;;5089273;28;20475;-48
2022/07/31 08:28:36;;;;;;;4.40;4.00;;;17.30;99.90;;;;;;5090418;28;20475;-53
2022/07/31 08:31:03;;;;;;;3.30;2.80;;;17.30;99.90;;;;;;5089798;28;20471;-49
2022/07/31 08:33:31;;;;;;;4.97;3.80;;;17.40;99.90;;;;;;5090957;28;20451;-49
2022/07/31 08:35:59;;;;;;;3.87;3.37;;;17.40;99.90;;;;;;5090546;28;20455;-47
2022/07/31 08:38:28;;;;;;;3.40;3.03;;;17.50;99.90;;;;;;5090696;28;20534;-50
2022/07/31 08:40:55;;;;;;;4.13;3.70;;;17.60;99.90;;;;;;5090589;28;20980;-49
2022/07/31 08:43:22;;;;;;;4.40;3.30;;;17.60;99.90;;;;;;5091161;28;20520;-48
2022/07/31 08:45:51;;;;;;;4.47;4.07;;;17.60;99.90;;;;;;5090482;28;20479;-50
2022/07/31 08:48:21;;;;;;;3.93;3.53;;;17.60;99.90;;;;;;5090543;28;20516;-47
2022/07/31 08:50:49;;;;;;;5.90;4.20;;;17.60;99.90;;;;;;5090469;28;20837;-49
2022/07/31 08:53:16;;;;;;;6.57;3.50;;;17.70;99.90;;;;;;5090563;28;20451;-49
2022/07/31 08:55:45;;;;;;;4.50;3.70;;;17.70;99.90;;;;;;5090216;28;20460;-52
2022/07/31 08:58:12;;;;;;;5.93;3.37;;;17.60;99.90;;;;;;5090760;28;20451;-48
2022/07/31 09:00:42;;;;;;;5.43;3.57;;;17.60;99.90;;;;;;5090233;28;20442;-53
2022/07/31 09:03:09;;;;;;;5.67;5.17;;;17.60;99.90;;;;;;5090175;28;20542;-50
2022/07/31 09:05:38;;;;;;;12.03;7.93;;;17.60;99.90;;;;;;5090364;28;20459;-50
2022/07/31 09:08:05;;;;;;;14.30;9.90;;;17.60;99.90;;;;;;5090236;28;20475;-50
2022/07/31 09:10:32;;;;;;;7.33;5.00;;;17.50;99.90;;;;;;5089990;28;20936;-50
2022/07/31 09:13:11;;;;;;;4.73;4.33;;;17.50;99.90;;;;;;5090328;28;20455;-48
2022/07/31 09:15:38;;;;;;;4.67;4.03;;;17.40;99.90;;;;;;5090359;28;20562;-53
2022/07/31 09:18:16;;;;;;;5.13;3.90;;;17.60;99.90;;;;;;5089979;28;20468;-48
2022/07/31 09:20:54;;;;;;;4.93;4.30;;;17.70;99.90;;;;;;5089840;28;20500;-53
2022/07/31 09:23:21;;;;;;;4.10;3.80;;;17.60;99.90;;;;;;5090075;28;20466;-54
2022/07/31 09:25:53;;;;;;;3.40;3.10;;;17.70;99.90;;;;;;5089902;28;20869;-47
2022/07/31 09:28:31;;;;;;;4.27;3.30;;;17.60;99.90;;;;;;5089800;28;20471;-50
2022/07/31 09:30:58;;;;;;;5.07;3.77;;;17.70;99.90;;;;;;5090114;28;20539;-50
2022/07/31 09:33:28;;;;;;;4.03;3.63;;;17.70;99.90;;;;;;5090168;28;20493;-47
2022/07/31 09:35:55;;;;;;;5.17;3.13;;;17.70;99.90;;;;;;5089934;28;20498;-51
2022/07/31 09:38:31;;;;;;;3.90;3.50;;;17.70;99.90;;;;;;5090008;28;20496;-49
2022/07/31 09:41:07;;;;;;;4.20;3.50;;;17.70;99.90;;;;;;5089463;28;20439;-48
2022/07/31 09:43:36;;;;;;;3.77;2.97;;;17.70;99.90;;;;;;5090067;28;20439;-48
2022/07/31 09:46:06;;;;;;;6.47;3.67;;;17.80;99.90;;;;;;5144030;22;20472;-47
2022/07/31 09:48:33;;;;;;;3.40;3.10;;;17.80;99.90;;;;;;5069497;28;20503;-49
2022/07/31 09:51:02;;;;;;;3.30;3.00;;;17.80;99.90;;;;;;5069016;28;20441;-47
2022/07/31 09:53:40;;;;;;;20.20;16.73;;;17.80;99.90;;;;;;5069506;28;20443;-47
2022/07/31 09:56:11;;;;;;;7.23;6.50;;;17.80;99.90;;;;;;5073876;28;20463;-46
2022/07/31 09:58:40;;;;;;;5.90;3.40;;;17.80;99.90;;;;;;5089727;28;20917;-47
2022/07/31 10:01:09;;;;;;;3.73;3.43;;;17.70;99.90;;;;;;5089743;28;20467;-48
2022/07/31 10:03:38;;;;;;;3.67;3.37;;;17.70;99.90;;;;;;5089804;28;20507;-47
2022/07/31 10:06:08;;;;;;;3.77;3.33;;;17.70;99.90;;;;;;5089713;28;20477;-48
2022/07/31 10:08:37;;;;;;;3.80;3.50;;;17.70;99.90;;;;;;5089415;28;20524;-47
2022/07/31 10:11:05;;;;;;;3.47;3.17;;;17.70;99.90;;;;;;5089524;28;20509;-50
2022/07/31 10:13:36;;;;;;;4.30;2.90;;;17.70;99.90;;;;;;5089552;28;20853;-47
2022/07/31 10:16:06;;;;;;;6.40;3.77;;;17.60;99.90;;;;;;5089600;28;20463;-47
2022/07/31 10:18:39;;;;;;;7.70;3.57;;;17.70;99.90;;;;;;5089437;28;20997;-47
2022/07/31 10:21:08;;;;;;;4.30;3.37;;;17.80;99.90;;;;;;5089201;28;20474;-48
2022/07/31 10:23:41;;;;;;;3.47;3.17;;;17.80;99.90;;;;;;5089455;28;20424;-47
2022/07/31 10:26:08;;;;;;;3.70;2.90;;;17.90;99.90;;;;;;5089555;28;20528;-47
2022/07/31 10:28:38;;;;;;;4.00;3.40;;;18.00;99.90;;;;;;5089282;28;20471;-49
2022/07/31 10:31:06;;;;;;;4.10;3.70;;;18.00;99.90;;;;;;5089391;28;20435;-47
2022/07/31 10:33:34;;;;;;;5.30;3.27;;;18.10;99.90;;;;;;5089382;28;20427;-49
2022/07/31 10:36:05;;;;;;;3.50;3.20;;;18.10;99.90;;;;;;5089435;28;20459;-47
2022/07/31 10:38:39;;;;;;;3.23;2.93;;;18.20;99.90;;;;;;5089323;28;20435;-47
2022/07/31 10:41:15;;;;;;;3.07;2.77;;;18.20;99.90;;;;;;5089400;28;20947;-47
2022/07/31 10:43:47;;;;;;;3.60;3.30;;;18.40;99.90;;;;;;5089194;28;20467;-51
2022/07/31 10:46:27;;;;;;;5.03;3.93;;;18.40;99.90;;;;;;5089333;28;20490;-47
2022/07/31 10:48:54;;;;;;;4.17;3.53;;;18.50;99.90;;;;;;5088934;28;20475;-48
2022/07/31 10:51:22;;;;;;;4.07;3.77;;;18.60;99.90;;;;;;5088834;28;20916;-47
2022/07/31 10:53:57;;;;;;;3.87;3.23;;;18.70;99.90;;;;;;5090927;28;20522;-49
2022/07/31 10:56:24;;;;;;;5.33;3.83;;;18.90;99.90;;;;;;5092359;28;20455;-47
2022/07/31 10:58:54;;;;;;;3.63;3.23;;;19.00;99.90;;;;;;5092650;28;20467;-47
2022/07/31 11:01:24;;;;;;;3.83;3.53;;;19.20;99.90;;;;;;5092565;28;20470;-47
2022/07/31 11:03:54;;;;;;;4.53;4.13;;;19.30;99.90;;;;;;5092651;28;20439;-51
2022/07/31 11:06:23;;;;;;;3.57;3.27;;;19.30;99.90;;;;;;5092613;28;20494;-47
2022/07/31 11:08:52;;;;;;;3.57;3.03;;;19.40;99.90;;;;;;5090259;28;20467;-49
2022/07/31 11:11:30;;;;;;;3.40;3.10;;;19.40;99.90;;;;;;5091568;28;20437;-48
2022/07/31 11:13:59;;;;;;;3.57;3.20;;;19.30;99.90;;;;;;5092267;28;20451;-48
2022/07/31 11:16:28;;;;;;;3.33;2.77;;;19.40;99.90;;;;;;5092382;28;20476;-48
2022/07/31 11:18:59;;;;;;;6.37;3.50;;;19.30;99.90;;;;;;5092094;28;20454;-50
2022/07/31 11:21:34;;;;;;;3.57;3.27;;;19.40;99.90;;;;;;5091895;28;20588;-51
2022/07/31 11:24:11;;;;;;;3.50;3.20;;;19.60;99.90;;;;;;5091660;28;21004;-45
2022/07/31 11:26:41;;;;;;;3.07;2.77;;;19.60;99.90;;;;;;5091774;28;20644;-47
2022/07/31 11:29:08;;;;;;;4.07;3.70;;;19.80;99.90;;;;;;5090883;28;20471;-47
2022/07/31 11:31:37;;;;;;;4.20;3.73;;;19.90;99.90;;;;;;5092137;28;20841;-48
2022/07/31 11:34:04;;;;;;;4.13;3.80;;;19.90;99.90;;;;;;5092140;28;20447;-47
2022/07/31 11:36:31;;;;;;;3.97;3.20;;;20.10;99.90;;;;;;5092092;28;20463;-47
2022/07/31 11:38:59;;;;;;;3.90;3.50;;;20.10;99.90;;;;;;5091989;28;20448;-50
2022/07/31 11:41:28;;;;;;;3.43;3.17;;;20.00;99.90;;;;;;5091834;28;20844;-50
2022/07/31 11:43:56;;;;;;;3.63;2.97;;;20.10;99.90;;;;;;5091847;28;20455;-49
2022/07/31 11:46:25;;;;;;;3.23;2.93;;;20.20;99.90;;;;;;5091500;28;20885;-49
2022/07/31 11:48:55;;;;;;;4.47;4.07;;;20.20;99.90;;;;;;5091464;28;20570;-47
2022/07/31 11:51:23;;;;;;;3.77;3.20;;;20.20;99.90;;;;;;5091613;28;20438;-52
2022/07/31 11:53:51;;;;;;;3.80;3.30;;;20.20;99.90;;;;;;5092163;28;20455;-50
2022/07/31 11:56:19;;;;;;;3.27;2.97;;;20.30;99.90;;;;;;5091298;28;20489;-47
2022/07/31 11:58:48;;;;;;;3.70;3.40;;;20.40;99.90;;;;;;5091508;28;20489;-46
2022/07/31 12:01:16;;;;;;;3.43;3.13;;;20.40;99.90;;;;;;5091627;28;20828;-47
2022/07/31 12:03:43;;;;;;;3.37;3.07;;;20.50;99.90;;;;;;5091036;28;20448;-47
2022/07/31 12:06:12;;;;;;;5.70;5.10;;;20.50;99.90;;;;;;5091295;28;20991;-47
2022/07/31 12:08:40;;;;;;;5.10;4.60;;;20.60;99.90;;;;;;5091214;28;20486;-50
2022/07/31 12:11:08;;;;;;;4.83;4.30;;;20.60;99.90;;;;;;5091406;28;20801;-48
2022/07/31 12:13:35;;;;;;;4.73;3.63;;;20.60;99.90;;;;;;5091234;28;20432;-47
2022/07/31 12:16:05;;;;;;;3.60;3.30;;;20.60;99.90;;;;;;5091173;28;20483;-47
2022/07/31 12:18:45;;;;;;;3.70;3.40;;;20.60;99.90;;;;;;5091057;28;20921;-47
2022/07/31 12:21:14;;;;;;;3.60;3.30;;;20.70;99.90;;;;;;5090913;28;20463;-47
2022/07/31 12:23:42;;;;;;;4.13;3.33;;;20.70;99.90;;;;;;5091192;28;20524;-49
2022/07/31 12:26:13;;;;;;;3.87;3.47;;;20.70;99.90;;;;;;5091051;28;20463;-47
2022/07/31 12:28:40;;;;;;;3.70;3.40;;;20.70;99.90;;;;;;5090735;28;20474;-48
2022/07/31 12:31:07;;;;;;;3.80;3.50;;;20.70;99.90;;;;;;5091004;28;20448;-49
2022/07/31 12:33:41;;;;;;;3.67;3.07;;;20.70;99.90;;;;;;5090842;28;20815;-49
2022/07/31 12:36:14;;;;;;;4.27;2.90;;;20.80;99.90;;;;;;5090853;28;20463;-47
2022/07/31 12:38:42;;;;;;;3.13;2.93;;;20.80;99.90;;;;;;5090691;28;20439;-50
2022/07/31 12:41:10;;;;;;;3.17;2.87;;;20.80;99.90;;;;;;5090769;28;20439;-47
2022/07/31 12:43:37;;;;;;;3.20;2.90;;;20.90;99.90;;;;;;5090796;28;20447;-47
2022/07/31 12:46:05;;;;;;;3.90;3.47;;;21.00;99.90;;;;;;5090578;28;20956;-48
2022/07/31 12:48:32;;;;;;;3.63;3.33;;;21.00;99.90;;;;;;5090587;28;20557;-47
2022/07/31 12:50:59;;;;;;;3.37;3.07;;;21.00;99.90;;;;;;5090537;28;20450;-48
2022/07/31 12:53:29;;;;;;;2.90;2.70;;;21.00;99.90;;;;;;5090595;28;20497;-51